createdAt,value
2019-05-25T00:02:53.626Z,99962.13
2019-05-25T00:05:57.101Z,99964.58
2019-05-25T00:09:00.637Z,99959.59
2019-05-25T00:12:04.066Z,99954.87
2019-05-25T00:15:07.524Z,99954.53
2019-05-25T00:18:11.090Z,99956.21
2019-05-25T00:21:14.648Z,99953.93
2019-05-25T00:24:20.160Z,99961.53
2019-05-25T00:27:23.645Z,99958.17
2019-05-25T00:30:27.144Z,99960.45
2019-05-25T00:33:31.676Z,99959.86
2019-05-25T00:36:36.198Z,99948.98
2019-05-25T00:39:40.722Z,99949.47
2019-05-25T00:42:44.214Z,99947.15
2019-05-25T00:45:47.727Z,99946.45
2019-05-25T00:48:51.229Z,99948.27
2019-05-25T00:51:54.720Z,99945.13
2019-05-25T00:54:59.252Z,99949.72
2019-05-25T00:58:02.747Z,99943.06
2019-05-25T01:01:06.482Z,99945.73
2019-05-25T01:04:10.074Z,99947.44
2019-05-25T01:07:13.675Z,99947.44
2019-05-25T01:10:17.165Z,99949.02
2019-05-25T01:13:20.668Z,99953.02
2019-05-25T01:16:24.170Z,99951.69
2019-05-25T01:19:27.664Z,99950.36
2019-05-25T01:22:32.191Z,99954.95
2019-05-25T01:25:35.680Z,99951.30
2019-05-25T01:28:39.191Z,99953.14
2019-05-25T01:31:42.686Z,99949.63
2019-05-25T01:34:46.085Z,99955.93
2019-05-25T01:37:49.502Z,99961.25
2019-05-25T01:40:55.165Z,99961.25
2019-05-25T01:43:58.744Z,99957.27
2019-05-25T01:47:02.163Z,99967.56
2019-05-25T01:50:05.675Z,99967.17
2019-05-25T01:53:11.625Z,99960.91
2019-05-25T01:56:14.291Z,99961.85
2019-05-25T01:59:17.915Z,99961.85
2019-05-25T02:02:21.390Z,99966.48
2019-05-25T02:05:24.809Z,99959.83
2019-05-25T02:08:28.289Z,99961.28
2019-05-25T02:11:31.893Z,99967.81
2019-05-25T02:14:35.401Z,99963.81
2019-05-25T02:17:38.927Z,99974.46
2019-05-25T02:20:43.423Z,99972.75
2019-05-25T02:23:48.819Z,99973.73
2019-05-25T02:26:52.304Z,99971.55
2019-05-25T02:29:55.777Z,99975.53
2019-05-25T02:32:59.183Z,99973.38
2019-05-25T02:36:02.927Z,99981.84
2019-05-25T02:39:07.195Z,99978.70
2019-05-25T02:42:10.834Z,99972.66
2019-05-25T02:45:15.316Z,99978.70
2019-05-25T02:48:18.824Z,99980.98
2019-05-25T02:51:22.347Z,99984.63
2019-05-25T02:54:25.841Z,99977.28
2019-05-25T02:57:29.341Z,99979.94
2019-05-25T03:00:33.702Z,99970.34
2019-05-25T03:03:37.182Z,99981.62
2019-05-25T03:06:41.062Z,99977.28
2019-05-25T03:09:44.560Z,99979.94
2019-05-25T03:12:48.062Z,99986.20
2019-05-25T03:15:52.588Z,99990.58
2019-05-25T03:18:56.002Z,99989.81
2019-05-25T03:21:59.585Z,99997.80
2019-05-25T03:25:03.108Z,100004.83
2019-05-25T03:28:06.559Z,100005.78
2019-05-25T03:31:10.117Z,100009.30
2019-05-25T03:34:13.595Z,100017.75
2019-05-25T03:37:16.996Z,100012.08
2019-05-25T03:40:20.461Z,100013.66
2019-05-25T03:43:23.900Z,100021.39
2019-05-25T03:46:27.425Z,100021.39
2019-05-25T03:49:30.896Z,100018.00
2019-05-25T03:52:34.400Z,100026.33
2019-05-25T03:55:37.817Z,100026.71
2019-05-25T03:58:41.296Z,100024.66
2019-05-25T04:01:44.897Z,100024.66
2019-05-25T04:04:48.421Z,100023.67
2019-05-25T04:07:51.906Z,100033.36
2019-05-25T04:10:55.404Z,100025.98
2019-05-25T04:13:59.936Z,100031.66
2019-05-25T04:17:03.425Z,100030.95
2019-05-25T04:20:06.959Z,100036.97
2019-05-25T04:23:10.471Z,100040.48
2019-05-25T04:26:22.548Z,100030.95
2019-05-25T04:29:19.291Z,100036.27
2019-05-25T04:32:23.809Z,100037.95
2019-05-25T04:35:30.466Z,100044.25
2019-05-25T04:38:34.074Z,100046.44
2019-05-25T04:41:37.577Z,100045.94
2019-05-25T04:44:40.983Z,100049.10
2019-05-25T04:47:44.589Z,100049.58
2019-05-25T04:50:48.098Z,100055.25
2019-05-25T04:53:51.519Z,100054.90
2019-05-25T04:56:54.979Z,100053.92
2019-05-25T04:59:58.588Z,100056.10
2019-05-25T05:03:03.118Z,100061.55
2019-05-25T05:06:08.657Z,100061.08
2019-05-25T05:09:12.197Z,100053.56
2019-05-25T05:12:16.687Z,100062.75
2019-05-25T05:15:20.190Z,100069.53
2019-05-25T05:18:23.613Z,100067.73
2019-05-25T05:21:27.101Z,100072.54
2019-05-25T05:24:30.720Z,100073.52
2019-05-25T05:27:34.192Z,100067.22
2019-05-25T05:30:38.717Z,100074.50
2019-05-25T05:33:42.214Z,100073.99
2019-05-25T05:36:45.743Z,100076.18
2019-05-25T05:39:49.146Z,100083.81
2019-05-25T05:42:52.881Z,100084.16
2019-05-25T05:45:57.851Z,100078.96
2019-05-25T05:49:01.383Z,100087.67
2019-05-25T05:52:04.908Z,100085.49
2019-05-25T05:55:09.752Z,100094.33
2019-05-25T05:58:13.462Z,100087.17
2019-05-25T06:01:17.020Z,100093.00
2019-05-25T06:04:20.564Z,100091.16
2019-05-25T06:07:27.316Z,100096.13
2019-05-25T06:10:29.403Z,100097.81
2019-05-25T06:13:33.165Z,100100.47
2019-05-25T06:16:36.754Z,100096.36
2019-05-25T06:19:40.277Z,100100.83
2019-05-25T06:22:44.789Z,100105.32
2019-05-25T06:25:48.464Z,100106.14
2019-05-25T06:28:51.874Z,100100.83
2019-05-25T06:31:56.314Z,100103.48
2019-05-25T06:34:59.813Z,100100.00
2019-05-25T06:38:04.361Z,100099.14
2019-05-25T06:41:08.814Z,100101.33
2019-05-25T06:44:12.482Z,100093.82
2019-05-25T06:47:16.079Z,100100.00
2019-05-25T06:50:19.590Z,100100.61
2019-05-25T06:53:24.098Z,100101.34
2019-05-25T06:56:27.525Z,100106.04
2019-05-25T06:59:31.123Z,100109.09
2019-05-25T07:02:34.520Z,100109.78
2019-05-25T07:05:37.998Z,100105.45
2019-05-25T07:08:41.621Z,100119.09
2019-05-25T07:11:45.136Z,100111.97
2019-05-25T07:14:48.557Z,100122.14
2019-05-25T07:17:52.009Z,100125.50
2019-05-25T07:20:55.433Z,100124.56
2019-05-25T07:23:58.909Z,100131.56
2019-05-25T07:27:03.436Z,100134.92
2019-05-25T07:30:07.990Z,100138.22
2019-05-25T07:33:11.460Z,100141.96
2019-05-25T07:36:14.978Z,100139.30
2019-05-25T07:39:18.447Z,100141.96
2019-05-25T07:42:21.910Z,100141.96
2019-05-25T07:45:25.376Z,100141.33
2019-05-25T07:48:28.857Z,100139.06
2019-05-25T07:51:32.507Z,100140.39
2019-05-25T07:54:36.987Z,100141.33
2019-05-25T07:57:40.633Z,100149.94
2019-05-25T08:00:45.171Z,100153.92
2019-05-25T08:03:50.035Z,100156.47
2019-05-25T08:06:54.782Z,100155.84
2019-05-25T08:09:58.208Z,100159.83
2019-05-25T08:13:01.632Z,100158.50
2019-05-25T08:16:05.092Z,100156.47
2019-05-25T08:19:08.693Z,100156.47
2019-05-25T08:22:12.195Z,100158.74
2019-05-25T08:25:16.708Z,100159.95
2019-05-25T08:28:32.124Z,100166.13
2019-05-25T08:31:25.796Z,100159.83
2019-05-25T08:34:29.519Z,100162.48
2019-05-25T08:37:33.190Z,100162.48
2019-05-25T08:40:36.790Z,100163.81
2019-05-25T08:43:41.391Z,100163.34
2019-05-25T08:46:47.169Z,100164.20
2019-05-25T08:49:52.680Z,100164.20
2019-05-25T08:52:56.407Z,100158.87
2019-05-25T08:55:59.873Z,100161.03
2019-05-25T08:59:03.347Z,100158.38
2019-05-25T09:02:06.735Z,100160.91
2019-05-25T09:05:10.685Z,100162.24
2019-05-25T09:08:14.179Z,100158.60
2019-05-25T09:11:18.651Z,100159.46
2019-05-25T09:14:22.240Z,100157.66
2019-05-25T09:17:25.880Z,100162.00
2019-05-25T09:20:29.363Z,100162.59
2019-05-25T09:23:32.880Z,100164.31
2019-05-25T09:26:36.361Z,100163.92
2019-05-25T09:29:40.891Z,100174.58
2019-05-25T09:32:45.407Z,100175.31
2019-05-25T09:35:49.853Z,100169.98
2019-05-25T09:38:53.424Z,100171.67
2019-05-25T09:41:57.854Z,100172.05
2019-05-25T09:45:01.473Z,100169.00
2019-05-25T09:48:05.990Z,100168.05
2019-05-25T09:51:15.565Z,100163.08
2019-05-25T09:54:14.634Z,100167.42
2019-05-25T09:57:18.132Z,100168.52
2019-05-25T10:00:21.630Z,100173.59
2019-05-25T10:03:25.040Z,100178.18
2019-05-25T10:06:29.657Z,100176.37
2019-05-25T10:09:34.188Z,100176.25
2019-05-25T10:12:37.686Z,100170.92
2019-05-25T10:15:43.362Z,100165.95
2019-05-25T10:18:46.930Z,100172.48
2019-05-25T10:21:50.422Z,100171.66
2019-05-25T10:24:55.048Z,100164.72
2019-05-25T10:27:58.472Z,100165.11
2019-05-25T10:31:01.984Z,100167.65
2019-05-25T10:34:05.475Z,100168.85
2019-05-25T10:37:08.962Z,100165.56
2019-05-25T10:40:13.511Z,100170.64
2019-05-25T10:43:16.929Z,100172.20
2019-05-25T10:46:20.495Z,100162.65
2019-05-25T10:49:24.137Z,100158.87
2019-05-25T10:52:27.757Z,100154.88
2019-05-25T10:55:33.256Z,100154.41
2019-05-25T10:58:36.774Z,100157.55
2019-05-25T11:01:46.290Z,100151.39
2019-05-25T11:04:49.710Z,100148.10
2019-05-25T11:07:53.262Z,100142.77
2019-05-25T11:10:56.743Z,100135.52
2019-05-25T11:14:00.233Z,100134.53
2019-05-25T11:17:03.722Z,100133.20
2019-05-25T11:20:08.589Z,100141.29
2019-05-25T11:23:12.205Z,100128.83
2019-05-25T11:26:16.663Z,100136.09
2019-05-25T11:29:20.289Z,100139.48
2019-05-25T11:32:23.867Z,100145.80
2019-05-25T11:35:27.388Z,100140.81
2019-05-25T11:38:32.016Z,100136.82
2019-05-25T11:41:35.965Z,100136.73
2019-05-25T11:44:39.392Z,100143.39
2019-05-25T11:47:43.030Z,100139.39
2019-05-25T11:50:46.515Z,100144.47
2019-05-25T11:53:50.023Z,100144.34
2019-05-25T11:56:53.528Z,100140.22
2019-05-25T11:59:58.175Z,100143.58
2019-05-25T12:03:01.733Z,100145.27
2019-05-25T12:06:06.304Z,100146.59
2019-05-25T12:09:09.776Z,100133.14
2019-05-25T12:12:13.397Z,100145.39
2019-05-25T12:15:22.926Z,100138.73
2019-05-25T12:18:26.447Z,100132.89
2019-05-25T12:21:29.927Z,100129.02
2019-05-25T12:24:33.438Z,100131.69
2019-05-25T12:27:36.925Z,100133.75
2019-05-25T12:30:41.476Z,100135.43
2019-05-25T12:33:45.155Z,100127.69
2019-05-25T12:36:48.656Z,100133.53
2019-05-25T12:39:54.229Z,100127.69
2019-05-25T12:42:57.710Z,100129.41
2019-05-25T12:46:02.226Z,100123.95
2019-05-25T12:49:05.757Z,100116.78
2019-05-25T12:52:09.251Z,100118.72
2019-05-25T12:55:12.744Z,100125.13
2019-05-25T12:58:16.228Z,100112.31
2019-05-25T13:01:20.770Z,100114.97
2019-05-25T13:04:24.263Z,100115.45
2019-05-25T13:07:27.770Z,100111.11
2019-05-25T13:10:31.281Z,100107.80
2019-05-25T13:13:41.735Z,100107.80
2019-05-25T13:20:22.191Z,100106.13
2019-05-25T13:23:27.612Z,100108.53
2019-05-25T13:26:32.137Z,100106.59
2019-05-25T13:29:35.629Z,100102.95
2019-05-25T13:32:40.161Z,100095.52
2019-05-25T13:35:44.796Z,100095.05
2019-05-25T13:38:48.650Z,100098.44
2019-05-25T13:41:52.101Z,100097.58
2019-05-25T13:44:56.639Z,100095.27
2019-05-25T13:48:01.156Z,100094.44
2019-05-25T13:51:04.678Z,100097.45
2019-05-25T13:54:08.141Z,100103.98
2019-05-25T13:57:11.645Z,100103.51
2019-05-25T14:00:15.360Z,100099.86
2019-05-25T14:03:18.863Z,100100.94
2019-05-25T14:06:22.376Z,100110.73
2019-05-25T14:09:25.906Z,100108.55
2019-05-25T14:12:29.373Z,100116.92
2019-05-25T14:15:32.862Z,100115.94
2019-05-25T14:18:36.434Z,100114.95
2019-05-25T14:21:39.879Z,100106.36
2019-05-25T14:24:43.386Z,100105.02
2019-05-25T14:27:47.912Z,100105.37
2019-05-25T14:30:52.425Z,100104.04
2019-05-25T14:33:56.156Z,100101.24
2019-05-25T14:37:01.020Z,100101.37
2019-05-25T14:40:05.507Z,100101.02
2019-05-25T14:43:09.099Z,100102.48
2019-05-25T14:46:26.920Z,100100.67
2019-05-25T14:49:18.747Z,100101.63
2019-05-25T14:52:22.252Z,100102.96
2019-05-25T14:55:25.809Z,100104.80
2019-05-25T14:58:29.309Z,100102.61
2019-05-25T15:01:32.741Z,100098.02
2019-05-25T15:04:36.294Z,100097.03
2019-05-25T15:07:39.760Z,100101.02
2019-05-25T15:10:43.248Z,100099.69
2019-05-25T15:13:46.756Z,100095.05
2019-05-25T15:16:50.386Z,100093.59
2019-05-25T15:19:53.868Z,100094.92
2019-05-25T15:22:57.533Z,100095.78
2019-05-25T15:26:00.971Z,100094.45
2019-05-25T15:29:04.512Z,100091.78
2019-05-25T15:32:19.563Z,100089.47
2019-05-25T15:35:13.305Z,100084.13
2019-05-25T15:38:16.824Z,100076.86
2019-05-25T15:41:21.402Z,100082.20
2019-05-25T15:44:24.848Z,100083.88
2019-05-25T15:47:28.378Z,100080.86
2019-05-25T15:50:31.838Z,100081.20
2019-05-25T15:53:36.393Z,100083.88
2019-05-25T15:56:39.902Z,100081.08
2019-05-25T15:59:43.418Z,100077.42
2019-05-25T16:02:46.885Z,100084.95
2019-05-25T16:05:50.927Z,100072.22
2019-05-25T16:08:55.517Z,100083.61
2019-05-25T16:11:59.022Z,100079.96
2019-05-25T16:15:02.585Z,100080.34
2019-05-25T16:18:06.044Z,100086.15
2019-05-25T16:21:09.475Z,100079.61
2019-05-25T16:24:13.050Z,100080.95
2019-05-25T16:27:16.515Z,100077.94
2019-05-25T16:30:20.853Z,100074.55
2019-05-25T16:33:24.379Z,100077.56
2019-05-25T16:36:27.968Z,100081.42
2019-05-25T16:39:31.575Z,100072.60
2019-05-25T16:42:35.070Z,100068.23
2019-05-25T16:45:39.587Z,100070.28
2019-05-25T16:48:43.094Z,100078.16
2019-05-25T16:51:47.622Z,100080.34
2019-05-25T16:54:51.150Z,100079.01
2019-05-25T16:57:54.558Z,100081.30
2019-05-25T17:00:58.125Z,100081.30
2019-05-25T17:04:01.621Z,100089.42
2019-05-25T17:07:06.141Z,100099.34
2019-05-25T17:10:09.565Z,100095.61
2019-05-25T17:13:13.165Z,100088.94
2019-05-25T17:16:16.580Z,100095.00
2019-05-25T17:19:20.145Z,100101.29
2019-05-25T17:22:23.863Z,100096.72
2019-05-25T17:25:27.274Z,100098.88
2019-05-25T17:28:30.771Z,100103.26
2019-05-25T17:31:34.364Z,100102.05
2019-05-25T17:34:37.777Z,100102.53
2019-05-25T17:37:41.268Z,100105.20
2019-05-25T17:40:44.907Z,100103.39
2019-05-25T17:43:48.322Z,100111.95
2019-05-25T17:46:51.940Z,100115.00
2019-05-25T17:49:56.566Z,100118.75
2019-05-25T17:53:00.103Z,100112.21
2019-05-25T17:56:03.632Z,100118.27
2019-05-25T17:59:07.092Z,100110.40
2019-05-25T18:02:10.609Z,100109.55
2019-05-25T18:05:14.568Z,100107.86
2019-05-25T18:08:18.025Z,100107.17
2019-05-25T18:11:21.525Z,100110.18
2019-05-25T18:14:24.985Z,100112.38
2019-05-25T18:17:28.420Z,100114.78
2019-05-25T18:20:32.035Z,100120.11
2019-05-25T18:23:35.539Z,100118.09
2019-05-25T18:26:39.026Z,100119.77
2019-05-25T18:29:42.535Z,100124.75
2019-05-25T18:32:46.024Z,100123.42
2019-05-25T18:35:49.522Z,100124.38
2019-05-25T18:38:54.062Z,100121.36
2019-05-25T18:41:58.589Z,100125.01
2019-05-25T18:45:03.176Z,100128.66
2019-05-25T18:48:06.605Z,100126.00
2019-05-25T18:51:10.190Z,100130.81
2019-05-25T18:54:13.706Z,100140.53
2019-05-25T18:57:17.444Z,100136.15
2019-05-25T19:00:21.173Z,100137.98
2019-05-25T19:03:24.801Z,100134.34
2019-05-25T19:06:28.217Z,100135.32
2019-05-25T19:09:31.664Z,100145.98
2019-05-25T19:12:35.076Z,100139.67
2019-05-25T19:15:38.589Z,100143.19
2019-05-25T19:18:42.027Z,100141.34
2019-05-25T19:21:45.790Z,100146.33
2019-05-25T19:24:49.225Z,100148.27
2019-05-25T19:27:52.722Z,100152.27
2019-05-25T19:30:56.226Z,100150.59
2019-05-25T19:33:59.725Z,100154.93
2019-05-25T19:37:04.267Z,100159.91
2019-05-25T19:40:09.451Z,100166.58
2019-05-25T19:43:13.103Z,100164.39
2019-05-25T19:46:16.632Z,100164.89
2019-05-25T19:49:20.103Z,100171.91
2019-05-25T19:52:24.702Z,100169.72
2019-05-25T19:55:28.245Z,100171.91
2019-05-25T19:58:32.098Z,100186.22
2019-05-25T20:01:36.014Z,100184.03
2019-05-25T20:04:41.449Z,100199.54
2019-05-25T20:07:45.081Z,100197.35
2019-05-25T20:10:49.684Z,100205.22
2019-05-25T20:13:53.233Z,100203.89
2019-05-25T20:16:56.731Z,100205.82
2019-05-25T20:20:00.161Z,100207.06
2019-05-25T20:23:03.571Z,100217.37
2019-05-25T20:26:08.095Z,100217.27
2019-05-25T20:29:11.571Z,100225.61
2019-05-25T20:32:15.067Z,100239.29
2019-05-25T20:35:32.461Z,100237.25
2019-05-25T20:38:25.770Z,100239.82
2019-05-25T20:41:30.269Z,100247.30
2019-05-25T20:44:33.670Z,100250.73
2019-05-25T20:47:37.273Z,100255.67
2019-05-25T20:50:40.829Z,100262.61
2019-05-25T20:53:45.299Z,100266.61
2019-05-25T20:56:48.856Z,100264.30
2019-05-25T20:59:52.226Z,100267.94
2019-05-25T21:03:06.070Z,100267.94
2019-05-25T21:06:01.961Z,100269.52
2019-05-25T21:09:07.225Z,100271.80
2019-05-25T21:12:10.813Z,100269.26
2019-05-25T21:15:15.249Z,100269.64
2019-05-25T21:18:19.096Z,100273.77
2019-05-25T21:21:22.597Z,100288.41
2019-05-25T21:24:26.036Z,100288.43
2019-05-25T21:27:29.555Z,100287.80
2019-05-25T21:30:34.066Z,100298.96
2019-05-25T21:33:37.573Z,100302.58
2019-05-25T21:36:43.255Z,100300.54
2019-05-25T21:39:47.270Z,100305.74
2019-05-25T21:42:50.762Z,100305.23
2019-05-25T21:45:54.239Z,100310.69
2019-05-25T21:48:58.776Z,100303.67
2019-05-25T21:52:03.332Z,100312.27
2019-05-25T21:55:07.361Z,100325.08
2019-05-25T21:58:10.824Z,100324.38
2019-05-25T22:01:14.250Z,100327.03
2019-05-25T22:04:17.733Z,100331.97
2019-05-25T22:07:21.207Z,100328.61
2019-05-25T22:10:24.710Z,100330.77
2019-05-25T22:13:29.097Z,100330.77
2019-05-25T22:16:32.677Z,100328.22
2019-05-25T22:19:36.223Z,100335.62
2019-05-25T22:22:41.033Z,100335.97
2019-05-25T22:25:44.451Z,100341.92
2019-05-25T22:28:48.987Z,100341.54
2019-05-25T22:31:52.525Z,100341.54
2019-05-25T22:34:57.009Z,100331.51
2019-05-25T22:38:00.523Z,100333.83
2019-05-25T22:41:03.923Z,100330.42
2019-05-25T22:44:07.649Z,100325.83
2019-05-25T22:47:11.293Z,100328.35
2019-05-25T22:50:14.883Z,100330.31
2019-05-25T22:53:19.395Z,100337.67
2019-05-25T22:56:23.111Z,100337.83
2019-05-25T22:59:27.675Z,100333.45
2019-05-25T23:02:31.241Z,100337.67
2019-05-25T23:05:35.137Z,100334.77
2019-05-25T23:08:38.881Z,100337.95
2019-05-25T23:11:43.468Z,100345.94
2019-05-25T23:14:47.207Z,100344.95
2019-05-25T23:17:50.766Z,100341.20
2019-05-25T23:20:54.237Z,100340.84
2019-05-25T23:23:58.868Z,100339.87
2019-05-25T23:27:02.471Z,100341.55
2019-05-25T23:30:05.993Z,100342.17
2019-05-25T23:33:09.497Z,100343.52
2019-05-25T23:36:12.971Z,100348.84
2019-05-25T23:39:16.482Z,100345.19
2019-05-25T23:42:21.006Z,100347.12
2019-05-25T23:45:25.546Z,100341.56
2019-05-25T23:48:29.030Z,100339.25
2019-05-25T23:51:33.568Z,100339.41
2019-05-25T23:54:37.059Z,100339.41
2019-05-25T23:57:40.480Z,100335.02
